Chatham, MA (02633)

12:49 PM EDT on May 22, 2015 (GMT -0400)
Oyster Pond and River | | Change Station
CLOSE
Current Station
Personal Weather Station
Location: Chatham, MA
Elevation: 69 ft
Nearby Weather Stations

Elev 69 ft 41.68 °N, 69.97 °W | Updated 14 seconds ago

Clear
Clear
58.3 °F
Feels Like 58.3 °F
N
7.0
Wind Variable Wind from WSW
Gusts 12.0 mph

Today
High -- | Low -- °F
--% Chance of Precip.
Yesterday
High -- | Low -- °F
Precip. -- in
5:14 AM 7:59 PM
Waxing Crescent, 22% visible
Pressure 29.85 in
Visibility 10.0 miles
Clouds Few 900 ft
Dew Point 48 °F
Humidity 69%
Rainfall 0.00 in
Snow Depth Not available.
UV 10 out of 12
Pollen 9.90 out of 12
Air Quality Not available.
Flu Activity Widespread
METAR KCQX 221552Z AUTO VRB06KT 10SM FEW009 14/11 A2985 RMK AO2 SLP108 T01390111 $

More Conditions Fewer Conditions

Pressure 29.85 in
Visibility 10.0 miles
Clouds Few 900 ft
Dew Point 48 °F
Humidity 69%
Rainfall 0.00 in
Snow Depth Not available.
UV 10 out of 12
Pollen 9.90 out of 12
Air Quality Not available.
Flu Activity Widespread
METAR KCQX 221552Z AUTO VRB06KT 10SM FEW009 14/11 A2985 RMK AO2 SLP108 T01390111 $

More Conditions Fewer Conditions

10-Day Weather Forecast

Almanac

Astronomy

May. 22, 2015 Rise Set
Actual Time
Civil Twilight
Nautical Twilight
Astronomical Twilight
Moon
Length of Visible Light
Length of Day
Tomorrow will be .
, % of the Moon is Illuminated

Today's Extremes

State Highs State Lows

Community

WunderPhotos

Upload Photos

1,823,263 photos uploaded!

WunderBlogs® & News

Nearby

Air Quality

  Air Quality AQ Index Pollutant
Not available.

Snow Depth

Station Depth Elevation

Earthquake Activity

City Distance Mag. Time & Date
Minimum magnitude displayed is 2.5.

Coastal Water Temperatures

Place Temperature

Stations

Nearby Weather Stations

Station Location Temp. Windchill Dew Point Humidity Wind Precip. Elev Updated Type